createdAt,value
2023-10-24T00:02:18.387Z,12.60
2023-10-24T00:04:45.807Z,13.50
2023-10-24T00:07:13.276Z,12.60
2023-10-24T00:09:40.587Z,12.70
2023-10-24T00:12:08.180Z,12.30
2023-10-24T00:14:35.581Z,13.10
2023-10-24T00:17:03.146Z,13.10
2023-10-24T00:19:30.834Z,13.60
2023-10-24T00:21:58.227Z,14.70
2023-10-24T00:24:27.290Z,11.80
2023-10-24T00:26:56.581Z,13.10
2023-10-24T00:29:24.058Z,12.20
2023-10-24T00:31:51.587Z,12.30
2023-10-24T00:34:19.205Z,14.90
2023-10-24T00:36:47.057Z,17.90
2023-10-24T00:39:14.359Z,12.40
2023-10-24T00:41:41.814Z,10.60
2023-10-24T00:44:09.697Z,12.30
2023-10-24T00:46:37.831Z,11.90
2023-10-24T00:49:05.360Z,11.20
2023-10-24T00:51:33.734Z,11.80
2023-10-24T00:54:03.221Z,10.80
2023-10-24T00:56:30.845Z,11.50
2023-10-24T00:58:58.646Z,11.40
2023-10-24T01:01:26.105Z,11.00
2023-10-24T01:03:53.688Z,9.70
2023-10-24T01:06:21.248Z,11.80
2023-10-24T01:08:48.715Z,12.30
2023-10-24T01:11:16.141Z,12.50
2023-10-24T01:13:43.614Z,13.70
2023-10-24T01:16:11.191Z,12.90
2023-10-24T01:18:38.701Z,13.00
2023-10-24T01:21:06.649Z,11.80
2023-10-24T01:23:34.058Z,11.50
2023-10-24T01:26:01.512Z,12.30
2023-10-24T01:28:29.594Z,13.00
2023-10-24T01:30:57.074Z,13.00
2023-10-24T01:33:24.721Z,12.30
2023-10-24T01:35:52.312Z,11.80
2023-10-24T01:38:20.091Z,12.60
2023-10-24T01:40:47.702Z,11.90
2023-10-24T01:43:15.221Z,11.10
2023-10-24T01:45:42.675Z,12.40
2023-10-24T01:48:10.033Z,10.60
2023-10-24T01:50:37.432Z,12.70
2023-10-24T01:53:04.839Z,11.50
2023-10-24T01:55:32.235Z,11.70
2023-10-24T01:57:59.630Z,10.70
2023-10-24T02:00:27.167Z,11.10
2023-10-24T02:02:55.413Z,11.20
2023-10-24T02:05:23.095Z,11.40
2023-10-24T02:07:50.554Z,11.20
2023-10-24T02:10:18.070Z,10.40
2023-10-24T02:12:46.828Z,10.40
2023-10-24T02:15:14.144Z,11.10
2023-10-24T02:17:44.450Z,11.10
2023-10-24T02:20:12.064Z,9.60
2023-10-24T02:22:39.790Z,10.40
2023-10-24T02:25:09.676Z,9.10
2023-10-24T02:27:37.716Z,8.90
2023-10-24T02:30:06.280Z,9.20
2023-10-24T02:32:33.911Z,9.40
2023-10-24T02:35:01.281Z,10.00
2023-10-24T02:37:28.722Z,9.00
2023-10-24T02:39:56.284Z,8.50
2023-10-24T02:42:23.585Z,7.80
2023-10-24T02:44:51.044Z,9.90
2023-10-24T02:47:18.465Z,10.20
2023-10-24T02:49:45.981Z,11.90
2023-10-24T02:52:13.519Z,11.50
2023-10-24T02:54:40.971Z,11.30
2023-10-24T02:57:08.729Z,11.30
2023-10-24T02:59:36.024Z,11.80
2023-10-24T03:02:03.573Z,13.40
2023-10-24T03:04:30.960Z,12.70
2023-10-24T03:06:58.380Z,11.30
2023-10-24T03:09:25.914Z,10.60
2023-10-24T03:11:53.311Z,12.60
2023-10-24T03:14:20.719Z,12.20
2023-10-24T03:16:50.221Z,12.30
2023-10-24T03:19:17.878Z,12.80
2023-10-24T03:21:45.777Z,11.50
2023-10-24T03:24:13.192Z,11.10
2023-10-24T03:26:40.557Z,11.30
2023-10-24T03:29:07.905Z,11.70
2023-10-24T03:31:35.279Z,11.80
2023-10-24T03:34:04.257Z,11.70
2023-10-24T03:36:31.640Z,11.50
2023-10-24T03:38:58.963Z,10.50
2023-10-24T03:41:26.333Z,9.40
2023-10-24T03:43:53.759Z,8.30
2023-10-24T03:46:21.143Z,7.90
2023-10-24T03:48:48.662Z,7.70
2023-10-24T03:51:16.020Z,6.80
2023-10-24T03:53:43.379Z,6.40
2023-10-24T03:56:10.700Z,7.20
2023-10-24T03:58:38.034Z,6.30
2023-10-24T04:01:05.911Z,7.10
2023-10-24T04:03:33.599Z,6.90
2023-10-24T04:06:01.167Z,7.90
2023-10-24T04:08:28.492Z,6.80
2023-10-24T04:10:55.810Z,7.80
2023-10-24T04:13:23.338Z,7.50
2023-10-24T04:15:53.503Z,8.10
2023-10-24T04:18:20.880Z,7.30
2023-10-24T04:20:48.424Z,7.80
2023-10-24T04:23:16.273Z,7.20
2023-10-24T04:25:43.882Z,7.00
2023-10-24T04:28:11.347Z,7.90
2023-10-24T04:30:42.327Z,7.60
2023-10-24T04:33:10.412Z,7.60
2023-10-24T04:35:42.766Z,7.20
2023-10-24T04:38:13.231Z,8.50
2023-10-24T04:40:40.837Z,8.00
2023-10-24T04:43:08.784Z,8.50
2023-10-24T04:45:36.881Z,9.20
2023-10-24T04:48:05.159Z,9.70
2023-10-24T04:50:32.863Z,9.10
2023-10-24T04:53:00.308Z,8.70
2023-10-24T04:55:29.147Z,9.00
2023-10-24T04:57:56.730Z,8.50
2023-10-24T05:00:26.005Z,8.90
2023-10-24T05:02:53.757Z,9.10
2023-10-24T05:05:21.471Z,9.20
2023-10-24T05:07:50.312Z,9.80
2023-10-24T05:10:17.950Z,9.30
2023-10-24T05:12:45.361Z,6.90
2023-10-24T05:15:12.910Z,7.40
2023-10-24T05:17:40.647Z,8.20
2023-10-24T05:20:08.908Z,7.70
2023-10-24T05:22:36.497Z,8.60
2023-10-24T05:25:04.210Z,7.90
2023-10-24T05:27:33.240Z,8.20
2023-10-24T05:30:01.042Z,9.10
2023-10-24T05:32:28.668Z,9.80
2023-10-24T05:34:56.362Z,25.60
2023-10-24T05:37:23.929Z,48.50
2023-10-24T05:39:51.391Z,76.70
2023-10-24T05:42:18.733Z,76.40
2023-10-24T05:44:46.144Z,63.00
2023-10-24T05:47:13.517Z,80.60
2023-10-24T05:49:40.974Z,129.20
2023-10-24T05:52:08.384Z,142.70
2023-10-24T05:54:37.328Z,179.40
2023-10-24T05:57:05.081Z,48.60
2023-10-24T05:59:34.248Z,24.70
2023-10-24T06:02:01.972Z,15.40
2023-10-24T06:04:29.405Z,17.40
2023-10-24T06:06:56.776Z,27.40
2023-10-24T06:09:24.103Z,24.70
2023-10-24T06:11:53.622Z,20.50
2023-10-24T06:14:21.077Z,15.10
2023-10-24T06:16:48.457Z,12.20
2023-10-24T06:19:15.965Z,11.70
2023-10-24T06:21:43.285Z,12.70
2023-10-24T06:24:10.695Z,17.90
2023-10-24T06:26:38.080Z,23.40
2023-10-24T06:29:05.394Z,17.60
2023-10-24T06:31:32.890Z,13.60
2023-10-24T06:34:09.924Z,13.00
2023-10-24T06:36:37.428Z,15.40
2023-10-24T06:39:05.283Z,16.90
2023-10-24T06:41:33.150Z,15.70
2023-10-24T06:44:00.545Z,16.20
2023-10-24T06:46:28.154Z,17.50
2023-10-24T06:48:55.635Z,17.10
2023-10-24T06:51:23.369Z,15.20
2023-10-24T06:53:50.778Z,19.00
2023-10-24T06:56:20.816Z,17.10
2023-10-24T06:58:49.545Z,17.00
2023-10-24T07:01:16.958Z,17.60
2023-10-24T07:03:44.386Z,15.40
2023-10-24T07:06:14.664Z,16.70
2023-10-24T07:08:43.499Z,15.40
2023-10-24T07:11:10.895Z,16.60
2023-10-24T07:13:38.462Z,16.10
2023-10-24T07:16:16.481Z,16.60
2023-10-24T07:18:44.275Z,13.50
2023-10-24T07:21:12.896Z,14.10
2023-10-24T07:23:40.270Z,14.10
2023-10-24T07:26:07.691Z,15.00
2023-10-24T07:28:35.245Z,15.90
2023-10-24T07:31:03.506Z,16.60
2023-10-24T07:33:30.943Z,17.20
2023-10-24T07:36:06.940Z,18.00
2023-10-24T07:38:34.457Z,18.40
2023-10-24T07:41:01.904Z,19.20
2023-10-24T07:43:29.362Z,19.90
2023-10-24T07:45:56.916Z,20.40
2023-10-24T07:48:25.265Z,19.70
2023-10-24T07:50:57.274Z,19.00
2023-10-24T07:53:25.684Z,16.80
2023-10-24T08:44:46.224Z,15.90
2023-10-24T08:47:13.311Z,15.50
2023-10-24T08:49:40.297Z,16.00
2023-10-24T08:52:22.534Z,16.10
2023-10-24T08:54:54.277Z,14.00
2023-10-24T08:57:27.229Z,13.70
2023-10-24T08:59:55.520Z,11.20
2023-10-24T09:02:22.346Z,10.70
2023-10-24T09:04:51.187Z,10.60
2023-10-24T09:07:17.990Z,10.60
2023-10-24T09:09:44.907Z,10.20
2023-10-24T09:12:15.268Z,11.00
2023-10-24T09:15:16.958Z,10.80
2023-10-24T09:18:16.426Z,12.70
2023-10-24T09:20:46.811Z,14.90
2023-10-24T09:23:24.039Z,10.20
2023-10-24T09:25:50.808Z,8.80
2023-10-24T09:28:18.867Z,7.60
2023-10-24T09:30:45.810Z,8.30
2023-10-24T09:33:12.753Z,8.10
2023-10-24T09:35:40.174Z,7.90
2023-10-24T09:38:10.149Z,7.80
2023-10-24T09:40:38.143Z,7.60
2023-10-24T09:43:13.655Z,8.00
2023-10-24T09:45:41.490Z,8.20
2023-10-24T09:48:09.326Z,7.90
2023-10-24T09:50:40.427Z,8.40
2023-10-24T09:53:07.571Z,10.10
2023-10-24T09:55:35.136Z,13.70
2023-10-24T09:58:03.778Z,14.10
2023-10-24T10:00:32.034Z,13.60
2023-10-24T10:03:01.053Z,15.80
2023-10-24T10:05:30.451Z,15.40
2023-10-24T10:07:59.185Z,15.80
2023-10-24T10:10:26.192Z,16.20
2023-10-24T10:12:56.458Z,15.90
2023-10-24T10:15:38.227Z,14.60
2023-10-24T10:18:13.133Z,13.70
2023-10-24T10:21:25.711Z,14.60
2023-10-24T10:24:20.697Z,10.80
2023-10-24T10:27:18.844Z,12.10
2023-10-24T10:30:24.458Z,12.70
2023-10-24T10:33:12.862Z,12.20
2023-10-24T10:35:48.686Z,12.60
2023-10-24T10:38:48.050Z,13.80
2023-10-24T10:41:22.062Z,11.70
2023-10-24T10:43:49.126Z,10.90
2023-10-24T10:46:17.093Z,10.90
2023-10-24T10:48:57.704Z,9.80
2023-10-24T10:54:53.496Z,11.10
2023-10-24T10:57:30.367Z,11.20
2023-10-24T11:00:05.084Z,12.00
2023-10-24T11:02:51.480Z,10.80
2023-10-24T11:05:45.312Z,10.30
2023-10-24T11:08:19.351Z,11.50
2023-10-24T11:11:08.242Z,10.70
2023-10-24T11:13:44.209Z,12.00
2023-10-24T11:16:25.434Z,11.70
2023-10-24T11:18:57.332Z,11.00
2023-10-24T11:21:24.127Z,12.60
2023-10-24T11:23:51.604Z,11.60
2023-10-24T11:26:18.461Z,11.00
2023-10-24T11:28:45.386Z,10.20
2023-10-24T11:31:38.613Z,11.50
2023-10-24T11:34:05.331Z,13.60
2023-10-24T11:36:32.359Z,13.00
2023-10-24T11:39:04.779Z,13.00
2023-10-24T11:41:31.737Z,12.10
2023-10-24T11:43:59.080Z,11.70
2023-10-24T11:46:25.885Z,12.80
2023-10-24T11:48:52.822Z,12.80
2023-10-24T11:51:20.045Z,13.00
2023-10-24T11:53:46.975Z,13.20
2023-10-24T11:56:13.993Z,12.70
2023-10-24T11:58:42.170Z,13.10
2023-10-24T12:01:08.913Z,13.20
2023-10-24T12:03:47.680Z,14.10
2023-10-24T12:06:20.116Z,14.30
2023-10-24T12:08:48.673Z,15.80
2023-10-24T12:11:16.132Z,17.70
2023-10-24T12:13:45.967Z,16.30
2023-10-24T12:18:44.473Z,17.70
2023-10-24T12:21:17.429Z,17.40
2023-10-24T12:23:46.344Z,17.50
2023-10-24T12:26:14.510Z,18.00
2023-10-24T12:28:49.172Z,16.80
2023-10-24T12:31:16.221Z,16.80
2023-10-24T12:33:43.362Z,17.00
2023-10-24T12:36:10.463Z,17.10
2023-10-24T12:38:38.266Z,17.00
2023-10-24T12:41:05.217Z,17.10
2023-10-24T12:43:32.625Z,18.60
2023-10-24T12:45:59.673Z,19.40
2023-10-24T12:48:27.446Z,19.70
2023-10-24T12:50:54.289Z,20.30
2023-10-24T12:53:23.778Z,20.60
2023-10-24T12:55:51.198Z,20.60
2023-10-24T12:58:18.146Z,23.00
2023-10-24T13:00:46.348Z,23.30
2023-10-24T13:03:17.795Z,22.60
2023-10-24T13:05:48.337Z,23.40
2023-10-24T13:08:15.329Z,22.30
2023-10-24T13:10:42.289Z,23.60
2023-10-24T13:13:09.109Z,22.20
2023-10-24T13:15:36.740Z,23.20
2023-10-24T13:18:04.381Z,24.40
2023-10-24T13:20:31.373Z,23.80
2023-10-24T13:22:58.120Z,23.30
2023-10-24T13:25:26.705Z,25.00
2023-10-24T13:27:56.106Z,24.20
2023-10-24T13:30:37.816Z,23.50
2023-10-24T13:33:10.119Z,23.30
2023-10-24T13:38:07.494Z,22.00
2023-10-24T13:40:34.572Z,21.70
2023-10-24T13:43:03.226Z,22.80
2023-10-24T13:45:30.277Z,22.10
2023-10-24T13:47:57.325Z,22.30
2023-10-24T13:50:24.140Z,22.60
2023-10-24T13:52:51.926Z,21.50
2023-10-24T13:55:18.908Z,23.80
2023-10-24T13:57:48.115Z,23.80
2023-10-24T14:00:15.567Z,23.70
2023-10-24T14:02:42.991Z,21.70
2023-10-24T14:05:10.218Z,23.30
2023-10-24T14:19:32.075Z,26.00
2023-10-24T14:22:00.154Z,26.60
2023-10-24T14:24:28.037Z,26.60
2023-10-24T14:26:55.719Z,28.30
2023-10-24T14:29:25.732Z,28.70
2023-10-24T14:31:53.350Z,28.30
2023-10-24T14:34:21.398Z,28.20
2023-10-24T14:36:49.150Z,26.20
2023-10-24T14:39:16.869Z,26.10
2023-10-24T14:41:44.428Z,27.00
2023-10-24T14:44:12.057Z,30.50
2023-10-24T14:46:39.704Z,31.80
2023-10-24T14:49:07.847Z,30.10
2023-10-24T14:51:35.601Z,29.60
2023-10-24T14:54:03.760Z,34.30
2023-10-24T14:56:31.693Z,32.00
2023-10-24T14:58:59.211Z,32.20
2023-10-24T15:01:27.684Z,35.70
2023-10-24T15:03:55.760Z,36.20
2023-10-24T15:06:23.798Z,35.70
2023-10-24T15:08:52.633Z,38.20
2023-10-24T15:11:20.190Z,40.30
2023-10-24T15:13:47.677Z,39.10
2023-10-24T15:16:15.220Z,42.60
2023-10-24T15:18:42.923Z,54.30
2023-10-24T15:21:10.582Z,59.10
2023-10-24T15:23:38.480Z,57.90
2023-10-24T15:26:06.219Z,51.20
2023-10-24T15:28:33.716Z,59.20
2023-10-24T15:31:01.325Z,119.20
2023-10-24T15:33:28.841Z,129.00
2023-10-24T15:35:59.439Z,145.40
2023-10-24T15:41:58.640Z,122.10
2023-10-24T15:44:26.334Z,106.50
2023-10-24T15:46:56.198Z,107.40
2023-10-24T15:49:24.132Z,95.50
2023-10-24T15:51:54.300Z,93.10
2023-10-24T15:54:24.177Z,91.50
2023-10-24T15:56:51.741Z,83.20
2023-10-24T15:59:19.328Z,87.80
2023-10-24T16:01:48.839Z,89.90
2023-10-24T16:04:17.296Z,102.00
2023-10-24T16:06:45.195Z,106.80
2023-10-24T16:15:15.777Z,126.60
2023-10-24T16:17:43.579Z,143.70
2023-10-24T16:20:11.562Z,140.00
2023-10-24T16:22:39.805Z,135.00
2023-10-24T16:25:08.075Z,134.20
2023-10-24T16:27:35.560Z,139.30
2023-10-24T16:30:03.246Z,138.80
2023-10-24T16:32:30.969Z,139.50
2023-10-24T16:34:59.988Z,139.40
2023-10-24T16:37:27.902Z,129.60
2023-10-24T16:39:55.814Z,113.60
2023-10-24T16:42:23.518Z,109.80
2023-10-24T16:44:50.926Z,100.60
2023-10-24T16:47:19.016Z,99.60
2023-10-24T16:49:50.345Z,99.00
2023-10-24T16:52:18.337Z,87.60
2023-10-24T16:54:46.841Z,79.30
2023-10-24T16:57:14.570Z,79.80
2023-10-24T16:59:42.039Z,80.70
2023-10-24T17:02:09.783Z,78.10
2023-10-24T17:04:37.672Z,76.90
2023-10-24T17:07:05.232Z,76.10
2023-10-24T17:09:35.230Z,73.70
2023-10-24T17:16:18.396Z,70.70
2023-10-24T17:18:46.050Z,72.10
2023-10-24T17:21:13.897Z,72.00
2023-10-24T17:23:41.721Z,68.80
2023-10-24T17:26:09.648Z,70.40
2023-10-24T17:28:37.482Z,74.20
2023-10-24T17:31:05.169Z,73.50
2023-10-24T17:33:34.110Z,73.00
2023-10-24T17:36:04.177Z,75.50
2023-10-24T17:38:35.067Z,76.10
2023-10-24T17:41:04.762Z,73.50
2023-10-24T17:43:33.060Z,72.40
2023-10-24T17:46:05.309Z,70.20
2023-10-24T17:48:33.485Z,79.10
2023-10-24T17:51:06.977Z,92.60
2023-10-24T17:53:34.872Z,98.00
2023-10-24T17:56:02.932Z,99.90
2023-10-24T17:58:30.606Z,100.10
2023-10-24T18:00:58.148Z,99.80
2023-10-24T18:03:26.012Z,99.70
2023-10-24T18:05:53.633Z,103.80
2023-10-24T18:08:21.300Z,99.50
2023-10-24T18:10:49.025Z,97.60
2023-10-24T18:13:16.563Z,93.70
2023-10-24T18:15:44.654Z,91.70
2023-10-24T18:18:15.645Z,90.20
2023-10-24T18:20:43.516Z,91.80
2023-10-24T18:23:16.681Z,84.60
2023-10-24T18:25:54.723Z,81.70
2023-10-24T18:28:22.947Z,76.80
2023-10-24T18:30:50.584Z,70.60
2023-10-24T18:33:18.140Z,59.00
2023-10-24T18:35:48.255Z,67.20
2023-10-24T18:38:18.287Z,75.70
2023-10-24T18:40:49.673Z,64.10
2023-10-24T18:43:17.156Z,61.30
2023-10-24T18:45:44.682Z,58.50
2023-10-24T19:01:46.471Z,53.90
2023-10-24T19:04:14.374Z,51.60
2023-10-24T19:06:45.129Z,50.50
2023-10-24T19:09:12.811Z,48.70
2023-10-24T19:11:40.727Z,48.10
2023-10-24T19:14:11.373Z,48.80
2023-10-24T19:16:40.450Z,48.00
2023-10-24T19:19:10.856Z,47.70
2023-10-24T19:21:38.864Z,47.40
2023-10-24T19:24:06.912Z,47.20
2023-10-24T19:26:34.456Z,46.80
2023-10-24T19:29:02.578Z,47.90
2023-10-24T19:31:33.527Z,47.80
2023-10-24T19:34:01.460Z,48.90
2023-10-24T19:36:30.273Z,50.80
2023-10-24T19:38:58.006Z,50.90
2023-10-24T19:41:26.071Z,48.00
2023-10-24T19:43:54.041Z,49.30
2023-10-24T19:46:22.233Z,51.40
2023-10-24T19:48:49.911Z,51.80
2023-10-24T19:51:17.655Z,49.40
2023-10-24T19:53:45.875Z,49.80
2023-10-24T19:56:13.497Z,51.10
2023-10-24T19:58:43.952Z,51.30
2023-10-24T20:01:12.176Z,53.00
2023-10-24T20:03:40.200Z,53.90
2023-10-24T20:06:10.112Z,53.60
2023-10-24T20:08:43.213Z,52.40
2023-10-24T20:12:34.652Z,52.50
2023-10-24T20:13:58.901Z,53.30
2023-10-24T20:16:33.811Z,54.10
2023-10-24T20:19:02.817Z,53.80
2023-10-24T20:21:30.626Z,53.40
2023-10-24T20:23:58.447Z,53.60
2023-10-24T20:26:26.627Z,56.00
2023-10-24T20:31:12.808Z,56.50
2023-10-24T20:33:40.392Z,51.50
2023-10-24T20:36:09.100Z,52.70
2023-10-24T20:38:36.884Z,52.70
2023-10-24T20:41:04.457Z,53.30
2023-10-24T20:43:33.701Z,52.20
2023-10-24T20:46:02.617Z,54.00
2023-10-24T20:51:34.323Z,52.00
2023-10-24T20:54:01.996Z,52.00
2023-10-24T20:56:29.526Z,51.00
2023-10-24T20:58:56.950Z,50.40
2023-10-24T21:01:27.266Z,49.70
2023-10-24T21:03:58.058Z,49.70
2023-10-24T21:13:06.520Z,53.80
2023-10-24T21:15:36.218Z,56.10
2023-10-24T21:18:06.493Z,60.70
2023-10-24T21:20:37.597Z,71.10
2023-10-24T21:23:07.760Z,72.90
2023-10-24T21:25:40.090Z,72.10
2023-10-24T21:28:07.947Z,64.40
2023-10-24T21:30:35.479Z,59.60
2023-10-24T21:33:03.241Z,60.40
2023-10-24T21:35:30.790Z,59.90
2023-10-24T21:38:02.567Z,60.80
2023-10-24T21:40:30.716Z,59.70
2023-10-24T21:42:58.632Z,56.40
2023-10-24T21:45:26.737Z,56.00
2023-10-24T21:47:54.666Z,55.10
2023-10-24T21:50:26.326Z,56.70
2023-10-24T21:52:53.940Z,57.70
2023-10-24T21:55:21.532Z,50.90
2023-10-24T21:57:54.070Z,51.80
2023-10-24T22:00:53.753Z,52.80
2023-10-24T22:03:21.579Z,51.30
2023-10-24T22:05:49.469Z,51.10
2023-10-24T22:08:17.702Z,48.80
2023-10-24T22:10:45.291Z,48.90
2023-10-24T22:13:12.824Z,48.50
2023-10-24T22:15:40.791Z,51.20
2023-10-24T22:18:08.322Z,47.60
2023-10-24T22:20:35.776Z,45.40
2023-10-24T22:23:05.583Z,48.90
2023-10-24T22:25:36.517Z,50.60
2023-10-24T22:28:06.049Z,52.10
2023-10-24T22:30:35.005Z,50.70
2023-10-24T22:33:02.512Z,51.00
2023-10-24T22:35:29.986Z,50.70
2023-10-24T22:37:57.385Z,52.10
2023-10-24T22:40:24.884Z,51.70
2023-10-24T22:42:52.447Z,50.30
2023-10-24T22:45:19.993Z,49.70
2023-10-24T22:47:49.237Z,48.50
2023-10-24T22:50:17.051Z,49.20
2023-10-24T22:52:44.970Z,49.40
2023-10-24T22:55:14.956Z,46.20
2023-10-24T22:57:42.674Z,46.20
2023-10-24T23:00:11.300Z,47.90
2023-10-24T23:02:38.767Z,47.90
2023-10-24T23:05:06.838Z,51.00
2023-10-24T23:07:35.504Z,50.00
2023-10-24T23:10:09.782Z,43.90
2023-10-24T23:12:37.415Z,48.30
2023-10-24T23:15:05.333Z,49.90
2023-10-24T23:17:37.689Z,50.60
2023-10-24T23:20:05.906Z,46.50
2023-10-24T23:22:33.428Z,46.40
2023-10-24T23:25:01.021Z,46.60
2023-10-24T23:27:28.716Z,50.00
2023-10-24T23:29:58.566Z,47.10
2023-10-24T23:32:57.083Z,46.10
2023-10-24T23:38:44.444Z,45.30
2023-10-24T23:41:11.905Z,46.80
2023-10-24T23:43:39.323Z,46.30
2023-10-24T23:46:06.801Z,44.00
2023-10-24T23:48:34.456Z,43.10
2023-10-24T23:51:04.763Z,44.10
2023-10-24T23:53:32.185Z,44.80
2023-10-24T23:56:02.699Z,47.10
2023-10-24T23:58:30.855Z,46.00
